sensor_id;sensor_type;location;lat;lon;timestamp;P1;durP1;ratioP1;P2;durP2;ratioP2
34673;SDS011;20879;55.668;37.858;2023-09-19T00:01:12;63.70;;;42.33;;
34673;SDS011;20879;55.668;37.858;2023-09-19T00:03:44;64.50;;;43.13;;
34673;SDS011;20879;55.668;37.858;2023-09-19T00:08:47;51.97;;;35.10;;
34673;SDS011;20879;55.668;37.858;2023-09-19T00:11:22;49.13;;;33.15;;
34673;SDS011;20879;55.668;37.858;2023-09-19T00:14:01;47.97;;;32.28;;
34673;SDS011;20879;55.668;37.858;2023-09-19T00:16:37;46.17;;;30.60;;
34673;SDS011;20879;55.668;37.858;2023-09-19T00:19:07;38.30;;;27.17;;
34673;SDS011;20879;55.668;37.858;2023-09-19T00:21:37;41.20;;;28.02;;
34673;SDS011;20879;55.668;37.858;2023-09-19T00:24:13;39.20;;;25.90;;
34673;SDS011;20879;55.668;37.858;2023-09-19T00:26:52;37.00;;;23.95;;
34673;SDS011;20879;55.668;37.858;2023-09-19T00:29:28;34.78;;;22.60;;
34673;SDS011;20879;55.668;37.858;2023-09-19T00:31:59;36.28;;;24.17;;
34673;SDS011;20879;55.668;37.858;2023-09-19T00:37:24;32.92;;;21.58;;
34673;SDS011;20879;55.668;37.858;2023-09-19T00:40:01;32.63;;;20.85;;
34673;SDS011;20879;55.668;37.858;2023-09-19T00:42:32;27.45;;;19.85;;
34673;SDS011;20879;55.668;37.858;2023-09-19T00:45:14;27.90;;;18.60;;
34673;SDS011;20879;55.668;37.858;2023-09-19T00:47:47;24.85;;;17.25;;
34673;SDS011;20879;55.668;37.858;2023-09-19T00:50:22;26.67;;;18.08;;
34673;SDS011;20879;55.668;37.858;2023-09-19T00:52:57;22.77;;;16.67;;
34673;SDS011;20879;55.668;37.858;2023-09-19T00:55:28;22.63;;;16.02;;
34673;SDS011;20879;55.668;37.858;2023-09-19T00:58:01;21.38;;;15.48;;
34673;SDS011;20879;55.668;37.858;2023-09-19T01:00:35;22.75;;;16.35;;
34673;SDS011;20879;55.668;37.858;2023-09-19T01:03:10;21.52;;;15.93;;
34673;SDS011;20879;55.668;37.858;2023-09-19T01:05:44;22.63;;;15.43;;
34673;SDS011;20879;55.668;37.858;2023-09-19T01:08:20;17.70;;;14.63;;
34673;SDS011;20879;55.668;37.858;2023-09-19T01:10:59;24.10;;;14.50;;
34673;SDS011;20879;55.668;37.858;2023-09-19T01:13:52;20.25;;;14.20;;
34673;SDS011;20879;55.668;37.858;2023-09-19T01:16:39;18.52;;;13.10;;
34673;SDS011;20879;55.668;37.858;2023-09-19T01:19:22;22.77;;;14.18;;
34673;SDS011;20879;55.668;37.858;2023-09-19T01:22:13;17.33;;;12.40;;
34673;SDS011;20879;55.668;37.858;2023-09-19T01:30:56;15.52;;;12.25;;
34673;SDS011;20879;55.668;37.858;2023-09-19T01:33:31;16.40;;;11.88;;
34673;SDS011;20879;55.668;37.858;2023-09-19T01:36:38;15.80;;;11.48;;
34673;SDS011;20879;55.668;37.858;2023-09-19T01:39:10;16.25;;;10.82;;
34673;SDS011;20879;55.668;37.858;2023-09-19T01:41:47;17.75;;;11.35;;
34673;SDS011;20879;55.668;37.858;2023-09-19T01:44:29;16.08;;;11.23;;
34673;SDS011;20879;55.668;37.858;2023-09-19T01:47:17;15.50;;;10.18;;
34673;SDS011;20879;55.668;37.858;2023-09-19T01:50:00;16.23;;;11.73;;
34673;SDS011;20879;55.668;37.858;2023-09-19T01:52:38;15.45;;;11.15;;
34673;SDS011;20879;55.668;37.858;2023-09-19T01:55:15;14.93;;;10.38;;
34673;SDS011;20879;55.668;37.858;2023-09-19T01:57:52;16.35;;;11.23;;
34673;SDS011;20879;55.668;37.858;2023-09-19T02:00:40;16.60;;;10.15;;
34673;SDS011;20879;55.668;37.858;2023-09-19T02:03:21;15.95;;;10.15;;
34673;SDS011;20879;55.668;37.858;2023-09-19T02:05:52;15.10;;;10.90;;
34673;SDS011;20879;55.668;37.858;2023-09-19T02:11:00;14.55;;;10.35;;
34673;SDS011;20879;55.668;37.858;2023-09-19T02:13:37;13.75;;;9.98;;
34673;SDS011;20879;55.668;37.858;2023-09-19T02:16:12;13.93;;;10.27;;
34673;SDS011;20879;55.668;37.858;2023-09-19T02:18:54;15.18;;;9.90;;
34673;SDS011;20879;55.668;37.858;2023-09-19T02:21:23;15.43;;;10.25;;
34673;SDS011;20879;55.668;37.858;2023-09-19T02:23:57;16.92;;;9.55;;
34673;SDS011;20879;55.668;37.858;2023-09-19T02:26:27;14.33;;;9.57;;
34673;SDS011;20879;55.668;37.858;2023-09-19T02:28:57;14.85;;;10.38;;
34673;SDS011;20879;55.668;37.858;2023-09-19T02:31:37;13.80;;;10.07;;
34673;SDS011;20879;55.668;37.858;2023-09-19T02:34:10;15.77;;;11.35;;
34673;SDS011;20879;55.668;37.858;2023-09-19T02:36:42;15.05;;;11.02;;
34673;SDS011;20879;55.668;37.858;2023-09-19T02:39:18;16.20;;;11.15;;
34673;SDS011;20879;55.668;37.858;2023-09-19T02:41:48;14.32;;;11.02;;
34673;SDS011;20879;55.668;37.858;2023-09-19T02:44:19;14.35;;;11.05;;
34673;SDS011;20879;55.668;37.858;2023-09-19T02:46:50;15.52;;;11.38;;
34673;SDS011;20879;55.668;37.858;2023-09-19T02:49:36;13.27;;;10.93;;
34673;SDS011;20879;55.668;37.858;2023-09-19T02:52:07;13.38;;;10.95;;
34673;SDS011;20879;55.668;37.858;2023-09-19T02:54:38;15.65;;;11.65;;
34673;SDS011;20879;55.668;37.858;2023-09-19T02:57:12;14.60;;;11.52;;
34673;SDS011;20879;55.668;37.858;2023-09-19T02:59:44;18.67;;;11.45;;
34673;SDS011;20879;55.668;37.858;2023-09-19T03:02:27;13.40;;;11.48;;
34673;SDS011;20879;55.668;37.858;2023-09-19T03:05:01;14.48;;;10.98;;
34673;SDS011;20879;55.668;37.858;2023-09-19T03:07:37;15.10;;;11.52;;
34673;SDS011;20879;55.668;37.858;2023-09-19T03:10:21;16.50;;;12.02;;
34673;SDS011;20879;55.668;37.858;2023-09-19T03:12:58;15.38;;;11.77;;
34673;SDS011;20879;55.668;37.858;2023-09-19T03:15:33;17.98;;;12.43;;
34673;SDS011;20879;55.668;37.858;2023-09-19T03:18:11;15.82;;;12.15;;
34673;SDS011;20879;55.668;37.858;2023-09-19T03:20:54;16.75;;;12.15;;
34673;SDS011;20879;55.668;37.858;2023-09-19T03:23:25;17.20;;;12.40;;
34673;SDS011;20879;55.668;37.858;2023-09-19T03:25:56;21.50;;;13.65;;
34673;SDS011;20879;55.668;37.858;2023-09-19T03:28:28;23.40;;;13.07;;
34673;SDS011;20879;55.668;37.858;2023-09-19T03:30:58;22.58;;;14.57;;
34673;SDS011;20879;55.668;37.858;2023-09-19T03:33:34;24.58;;;14.82;;
34673;SDS011;20879;55.668;37.858;2023-09-19T03:36:07;23.52;;;14.55;;
34673;SDS011;20879;55.668;37.858;2023-09-19T03:38:37;23.48;;;13.93;;
34673;SDS011;20879;55.668;37.858;2023-09-19T03:41:11;23.63;;;13.50;;
34673;SDS011;20879;55.668;37.858;2023-09-19T03:43:45;19.38;;;12.50;;
34673;SDS011;20879;55.668;37.858;2023-09-19T03:46:16;16.45;;;10.48;;
34673;SDS011;20879;55.668;37.858;2023-09-19T03:48:52;15.18;;;10.18;;
34673;SDS011;20879;55.668;37.858;2023-09-19T03:51:31;13.60;;;10.38;;
34673;SDS011;20879;55.668;37.858;2023-09-19T03:54:05;17.48;;;9.57;;
34673;SDS011;20879;55.668;37.858;2023-09-19T03:56:39;13.45;;;9.80;;
34673;SDS011;20879;55.668;37.858;2023-09-19T03:59:10;12.35;;;9.57;;
34673;SDS011;20879;55.668;37.858;2023-09-19T04:01:42;13.10;;;10.18;;
34673;SDS011;20879;55.668;37.858;2023-09-19T04:04:15;15.15;;;9.63;;
34673;SDS011;20879;55.668;37.858;2023-09-19T04:06:49;14.73;;;10.05;;
34673;SDS011;20879;55.668;37.858;2023-09-19T04:09:20;13.50;;;10.02;;
34673;SDS011;20879;55.668;37.858;2023-09-19T04:11:54;12.55;;;9.77;;
34673;SDS011;20879;55.668;37.858;2023-09-19T04:16:55;15.18;;;10.13;;
34673;SDS011;20879;55.668;37.858;2023-09-19T04:19:25;12.98;;;10.15;;
34673;SDS011;20879;55.668;37.858;2023-09-19T04:21:58;13.55;;;9.48;;
34673;SDS011;20879;55.668;37.858;2023-09-19T04:24:36;16.20;;;11.00;;
34673;SDS011;20879;55.668;37.858;2023-09-19T04:27:05;14.85;;;10.70;;
34673;SDS011;20879;55.668;37.858;2023-09-19T04:29:49;15.75;;;10.32;;
34673;SDS011;20879;55.668;37.858;2023-09-19T04:32:26;14.35;;;10.95;;
34673;SDS011;20879;55.668;37.858;2023-09-19T04:34:59;13.52;;;10.45;;
34673;SDS011;20879;55.668;37.858;2023-09-19T04:37:42;14.38;;;10.25;;
34673;SDS011;20879;55.668;37.858;2023-09-19T04:40:13;16.08;;;10.15;;
34673;SDS011;20879;55.668;37.858;2023-09-19T04:42:45;15.52;;;11.00;;
34673;SDS011;20879;55.668;37.858;2023-09-19T04:45:24;13.55;;;9.98;;
34673;SDS011;20879;55.668;37.858;2023-09-19T04:47:55;20.35;;;10.32;;
34673;SDS011;20879;55.668;37.858;2023-09-19T04:50:25;11.85;;;9.43;;
34673;SDS011;20879;55.668;37.858;2023-09-19T04:53:05;12.93;;;9.40;;
34673;SDS011;20879;55.668;37.858;2023-09-19T04:58:05;17.75;;;10.10;;
34673;SDS011;20879;55.668;37.858;2023-09-19T05:00:34;12.60;;;9.43;;
34673;SDS011;20879;55.668;37.858;2023-09-19T05:03:05;14.32;;;9.82;;
34673;SDS011;20879;55.668;37.858;2023-09-19T05:05:35;15.73;;;9.68;;
34673;SDS011;20879;55.668;37.858;2023-09-19T05:08:19;14.68;;;9.05;;
34673;SDS011;20879;55.668;37.858;2023-09-19T05:10:49;16.45;;;9.38;;
34673;SDS011;20879;55.668;37.858;2023-09-19T05:13:19;16.95;;;10.60;;
34673;SDS011;20879;55.668;37.858;2023-09-19T05:15:49;14.07;;;9.47;;
34673;SDS011;20879;55.668;37.858;2023-09-19T05:18:27;13.10;;;9.95;;
34673;SDS011;20879;55.668;37.858;2023-09-19T05:23:39;18.25;;;9.23;;
34673;SDS011;20879;55.668;37.858;2023-09-19T05:26:09;13.57;;;9.50;;
34673;SDS011;20879;55.668;37.858;2023-09-19T05:28:43;14.77;;;9.88;;
34673;SDS011;20879;55.668;37.858;2023-09-19T05:31:21;15.73;;;9.60;;
34673;SDS011;20879;55.668;37.858;2023-09-19T05:33:56;19.42;;;9.73;;
34673;SDS011;20879;55.668;37.858;2023-09-19T05:36:29;15.48;;;9.93;;
34673;SDS011;20879;55.668;37.858;2023-09-19T05:39:08;14.23;;;9.52;;
34673;SDS011;20879;55.668;37.858;2023-09-19T05:41:44;14.57;;;9.70;;
34673;SDS011;20879;55.668;37.858;2023-09-19T05:44:24;18.17;;;10.05;;
34673;SDS011;20879;55.668;37.858;2023-09-19T05:46:55;15.50;;;9.38;;
34673;SDS011;20879;55.668;37.858;2023-09-19T05:49:25;14.77;;;9.70;;
34673;SDS011;20879;55.668;37.858;2023-09-19T05:51:56;17.60;;;9.13;;
34673;SDS011;20879;55.668;37.858;2023-09-19T05:54:31;15.05;;;9.68;;
34673;SDS011;20879;55.668;37.858;2023-09-19T05:57:01;21.35;;;10.02;;
34673;SDS011;20879;55.668;37.858;2023-09-19T05:59:43;13.30;;;10.02;;
34673;SDS011;20879;55.668;37.858;2023-09-19T06:02:15;15.27;;;9.90;;
34673;SDS011;20879;55.668;37.858;2023-09-19T06:04:49;14.88;;;9.90;;
34673;SDS011;20879;55.668;37.858;2023-09-19T06:07:21;13.52;;;10.18;;
34673;SDS011;20879;55.668;37.858;2023-09-19T06:09:54;15.77;;;9.23;;
34673;SDS011;20879;55.668;37.858;2023-09-19T06:12:29;13.68;;;9.45;;
34673;SDS011;20879;55.668;37.858;2023-09-19T06:15:05;12.65;;;9.15;;
34673;SDS011;20879;55.668;37.858;2023-09-19T06:17:41;20.00;;;10.65;;
34673;SDS011;20879;55.668;37.858;2023-09-19T06:20:11;16.33;;;10.07;;
34673;SDS011;20879;55.668;37.858;2023-09-19T06:25:17;16.27;;;9.98;;
34673;SDS011;20879;55.668;37.858;2023-09-19T06:27:50;14.45;;;9.50;;
34673;SDS011;20879;55.668;37.858;2023-09-19T06:30:22;16.45;;;10.75;;
34673;SDS011;20879;55.668;37.858;2023-09-19T06:33:00;15.82;;;11.02;;
34673;SDS011;20879;55.668;37.858;2023-09-19T06:35:31;14.25;;;10.52;;
34673;SDS011;20879;55.668;37.858;2023-09-19T06:38:16;23.40;;;10.73;;
34673;SDS011;20879;55.668;37.858;2023-09-19T06:40:52;18.13;;;10.70;;
34673;SDS011;20879;55.668;37.858;2023-09-19T06:43:28;16.95;;;10.52;;
34673;SDS011;20879;55.668;37.858;2023-09-19T06:45:59;19.08;;;10.80;;
34673;SDS011;20879;55.668;37.858;2023-09-19T06:48:29;19.17;;;11.07;;
34673;SDS011;20879;55.668;37.858;2023-09-19T06:51:05;16.42;;;10.45;;
34673;SDS011;20879;55.668;37.858;2023-09-19T06:53:42;14.45;;;10.63;;
34673;SDS011;20879;55.668;37.858;2023-09-19T06:56:21;17.05;;;10.70;;
34673;SDS011;20879;55.668;37.858;2023-09-19T06:58:56;15.57;;;10.63;;
34673;SDS011;20879;55.668;37.858;2023-09-19T07:01:28;16.00;;;10.98;;
34673;SDS011;20879;55.668;37.858;2023-09-19T07:04:07;16.85;;;10.65;;
34673;SDS011;20879;55.668;37.858;2023-09-19T07:06:41;14.65;;;10.32;;
34673;SDS011;20879;55.668;37.858;2023-09-19T07:09:19;16.38;;;10.60;;
34673;SDS011;20879;55.668;37.858;2023-09-19T07:11:51;15.60;;;11.20;;
34673;SDS011;20879;55.668;37.858;2023-09-19T07:14:32;17.70;;;10.75;;
34673;SDS011;20879;55.668;37.858;2023-09-19T07:17:03;20.05;;;11.25;;
34673;SDS011;20879;55.668;37.858;2023-09-19T07:19:33;19.80;;;10.90;;
34673;SDS011;20879;55.668;37.858;2023-09-19T07:22:11;20.48;;;11.93;;
34673;SDS011;20879;55.668;37.858;2023-09-19T07:24:43;14.77;;;11.10;;
34673;SDS011;20879;55.668;37.858;2023-09-19T07:27:19;21.02;;;11.18;;
34673;SDS011;20879;55.668;37.858;2023-09-19T07:29:52;20.35;;;11.40;;
34673;SDS011;20879;55.668;37.858;2023-09-19T07:32:25;17.60;;;11.15;;
34673;SDS011;20879;55.668;37.858;2023-09-19T07:35:02;14.18;;;10.40;;
34673;SDS011;20879;55.668;37.858;2023-09-19T07:37:34;15.23;;;10.80;;
34673;SDS011;20879;55.668;37.858;2023-09-19T07:40:13;17.35;;;11.23;;
34673;SDS011;20879;55.668;37.858;2023-09-19T07:42:50;16.15;;;11.05;;
34673;SDS011;20879;55.668;37.858;2023-09-19T07:45:20;19.13;;;10.90;;
34673;SDS011;20879;55.668;37.858;2023-09-19T07:47:51;17.65;;;11.43;;
34673;SDS011;20879;55.668;37.858;2023-09-19T07:50:27;18.20;;;10.82;;
34673;SDS011;20879;55.668;37.858;2023-09-19T07:52:57;21.58;;;10.57;;
34673;SDS011;20879;55.668;37.858;2023-09-19T07:55:32;16.05;;;10.82;;
34673;SDS011;20879;55.668;37.858;2023-09-19T07:58:04;15.05;;;11.40;;
34673;SDS011;20879;55.668;37.858;2023-09-19T08:00:34;20.23;;;10.68;;
34673;SDS011;20879;55.668;37.858;2023-09-19T08:03:12;17.55;;;10.52;;
34673;SDS011;20879;55.668;37.858;2023-09-19T08:05:44;18.30;;;11.05;;
34673;SDS011;20879;55.668;37.858;2023-09-19T08:08:26;16.33;;;10.55;;
34673;SDS011;20879;55.668;37.858;2023-09-19T08:10:57;17.40;;;11.18;;
34673;SDS011;20879;55.668;37.858;2023-09-19T08:13:39;15.45;;;10.05;;
34673;SDS011;20879;55.668;37.858;2023-09-19T08:16:17;16.70;;;10.75;;
34673;SDS011;20879;55.668;37.858;2023-09-19T08:18:49;16.70;;;11.00;;
34673;SDS011;20879;55.668;37.858;2023-09-19T08:21:29;19.48;;;10.52;;
34673;SDS011;20879;55.668;37.858;2023-09-19T08:23:59;18.40;;;11.60;;
34673;SDS011;20879;55.668;37.858;2023-09-19T08:26:31;19.55;;;10.80;;
34673;SDS011;20879;55.668;37.858;2023-09-19T08:29:08;35.65;;;12.35;;
34673;SDS011;20879;55.668;37.858;2023-09-19T08:31:41;22.98;;;11.10;;
34673;SDS011;20879;55.668;37.858;2023-09-19T08:34:16;18.67;;;10.82;;
34673;SDS011;20879;55.668;37.858;2023-09-19T08:36:50;18.83;;;11.48;;
34673;SDS011;20879;55.668;37.858;2023-09-19T08:42:02;19.55;;;11.18;;
34673;SDS011;20879;55.668;37.858;2023-09-19T08:44:38;15.00;;;11.02;;
34673;SDS011;20879;55.668;37.858;2023-09-19T08:47:10;16.25;;;10.75;;
34673;SDS011;20879;55.668;37.858;2023-09-19T08:49:48;19.05;;;10.95;;
34673;SDS011;20879;55.668;37.858;2023-09-19T08:52:37;15.07;;;9.73;;
34673;SDS011;20879;55.668;37.858;2023-09-19T08:55:18;15.38;;;10.40;;
34673;SDS011;20879;55.668;37.858;2023-09-19T08:57:49;17.08;;;10.45;;
34673;SDS011;20879;55.668;37.858;2023-09-19T09:00:22;15.80;;;10.98;;
34673;SDS011;20879;55.668;37.858;2023-09-19T09:02:57;19.15;;;10.75;;
34673;SDS011;20879;55.668;37.858;2023-09-19T09:05:36;18.65;;;11.02;;
34673;SDS011;20879;55.668;37.858;2023-09-19T09:08:15;16.25;;;11.20;;
34673;SDS011;20879;55.668;37.858;2023-09-19T09:13:22;17.30;;;10.07;;
34673;SDS011;20879;55.668;37.858;2023-09-19T09:15:57;19.67;;;10.38;;
34673;SDS011;20879;55.668;37.858;2023-09-19T09:18:28;14.68;;;10.05;;
34673;SDS011;20879;55.668;37.858;2023-09-19T09:21:08;13.88;;;10.48;;
34673;SDS011;20879;55.668;37.858;2023-09-19T09:23:52;14.63;;;9.65;;
34673;SDS011;20879;55.668;37.858;2023-09-19T09:29:16;13.88;;;8.68;;
34673;SDS011;20879;55.668;37.858;2023-09-19T09:32:18;18.87;;;9.50;;
34673;SDS011;20879;55.668;37.858;2023-09-19T09:34:54;19.05;;;9.48;;
34673;SDS011;20879;55.668;37.858;2023-09-19T09:37:31;19.95;;;10.10;;
34673;SDS011;20879;55.668;37.858;2023-09-19T09:40:18;15.38;;;9.15;;
34673;SDS011;20879;55.668;37.858;2023-09-19T09:43:03;19.10;;;9.60;;
34673;SDS011;20879;55.668;37.858;2023-09-19T09:46:15;13.20;;;8.98;;
34673;SDS011;20879;55.668;37.858;2023-09-19T09:49:03;14.65;;;9.18;;
34673;SDS011;20879;55.668;37.858;2023-09-19T09:51:48;16.27;;;9.40;;
34673;SDS011;20879;55.668;37.858;2023-09-19T09:54:33;16.27;;;9.63;;
34673;SDS011;20879;55.668;37.858;2023-09-19T09:57:06;15.20;;;9.32;;
34673;SDS011;20879;55.668;37.858;2023-09-19T09:59:53;15.15;;;9.00;;
34673;SDS011;20879;55.668;37.858;2023-09-19T10:02:55;13.73;;;9.45;;
34673;SDS011;20879;55.668;37.858;2023-09-19T10:05:45;17.77;;;9.45;;
34673;SDS011;20879;55.668;37.858;2023-09-19T10:08:39;14.77;;;9.45;;
34673;SDS011;20879;55.668;37.858;2023-09-19T10:11:35;17.35;;;9.10;;
34673;SDS011;20879;55.668;37.858;2023-09-19T10:14:39;19.73;;;11.32;;
34673;SDS011;20879;55.668;37.858;2023-09-19T10:17:19;13.98;;;10.27;;
34673;SDS011;20879;55.668;37.858;2023-09-19T10:20:07;16.88;;;10.45;;
34673;SDS011;20879;55.668;37.858;2023-09-19T10:22:59;17.98;;;10.90;;
34673;SDS011;20879;55.668;37.858;2023-09-19T10:25:39;16.73;;;10.35;;
34673;SDS011;20879;55.668;37.858;2023-09-19T10:28:25;17.35;;;11.90;;
34673;SDS011;20879;55.668;37.858;2023-09-19T10:31:13;19.85;;;10.90;;
34673;SDS011;20879;55.668;37.858;2023-09-19T10:34:03;15.50;;;10.73;;
34673;SDS011;20879;55.668;37.858;2023-09-19T10:36:52;14.52;;;10.13;;
34673;SDS011;20879;55.668;37.858;2023-09-19T10:39:33;17.42;;;9.90;;
34673;SDS011;20879;55.668;37.858;2023-09-19T10:42:09;14.88;;;9.98;;
34673;SDS011;20879;55.668;37.858;2023-09-19T10:44:54;14.98;;;9.68;;
34673;SDS011;20879;55.668;37.858;2023-09-19T10:47:31;14.25;;;9.55;;
34673;SDS011;20879;55.668;37.858;2023-09-19T10:50:12;19.65;;;9.70;;
34673;SDS011;20879;55.668;37.858;2023-09-19T10:52:54;17.02;;;9.00;;
34673;SDS011;20879;55.668;37.858;2023-09-19T10:55:37;16.58;;;9.77;;
34673;SDS011;20879;55.668;37.858;2023-09-19T10:58:26;14.10;;;9.65;;
34673;SDS011;20879;55.668;37.858;2023-09-19T11:01:24;17.92;;;9.60;;
34673;SDS011;20879;55.668;37.858;2023-09-19T11:04:27;16.75;;;10.00;;
34673;SDS011;20879;55.668;37.858;2023-09-19T11:07:10;15.05;;;9.32;;
34673;SDS011;20879;55.668;37.858;2023-09-19T11:09:54;20.10;;;10.18;;
34673;SDS011;20879;55.668;37.858;2023-09-19T11:12:50;21.33;;;10.23;;
34673;SDS011;20879;55.668;37.858;2023-09-19T11:18:55;16.63;;;10.45;;
34673;SDS011;20879;55.668;37.858;2023-09-19T11:24:33;17.17;;;10.45;;
34673;SDS011;20879;55.668;37.858;2023-09-19T11:27:10;13.55;;;9.88;;
34673;SDS011;20879;55.668;37.858;2023-09-19T11:30:04;18.15;;;10.63;;
34673;SDS011;20879;55.668;37.858;2023-09-19T11:33:19;17.50;;;10.77;;
34673;SDS011;20879;55.668;37.858;2023-09-19T11:36:02;23.98;;;10.70;;
34673;SDS011;20879;55.668;37.858;2023-09-19T11:41:38;18.58;;;10.88;;
34673;SDS011;20879;55.668;37.858;2023-09-19T11:44:34;15.40;;;9.95;;
34673;SDS011;20879;55.668;37.858;2023-09-19T11:47:14;20.58;;;10.82;;
34673;SDS011;20879;55.668;37.858;2023-09-19T11:49:51;20.13;;;11.63;;
34673;SDS011;20879;55.668;37.858;2023-09-19T11:52:26;15.05;;;10.77;;
34673;SDS011;20879;55.668;37.858;2023-09-19T11:55:09;18.20;;;11.47;;
34673;SDS011;20879;55.668;37.858;2023-09-19T11:57:50;24.10;;;10.40;;
34673;SDS011;20879;55.668;37.858;2023-09-19T12:00:29;19.45;;;10.35;;
34673;SDS011;20879;55.668;37.858;2023-09-19T12:03:07;15.77;;;10.80;;
34673;SDS011;20879;55.668;37.858;2023-09-19T12:05:42;21.77;;;10.57;;
34673;SDS011;20879;55.668;37.858;2023-09-19T12:08:24;21.48;;;10.90;;
34673;SDS011;20879;55.668;37.858;2023-09-19T12:10:57;15.70;;;10.55;;
34673;SDS011;20879;55.668;37.858;2023-09-19T12:13:41;18.77;;;11.75;;
34673;SDS011;20879;55.668;37.858;2023-09-19T12:16:15;18.90;;;12.23;;
34673;SDS011;20879;55.668;37.858;2023-09-19T12:21:59;17.02;;;10.85;;
34673;SDS011;20879;55.668;37.858;2023-09-19T12:24:45;14.38;;;10.80;;
34673;SDS011;20879;55.668;37.858;2023-09-19T12:27:22;21.60;;;11.20;;
34673;SDS011;20879;55.668;37.858;2023-09-19T12:29:59;16.75;;;10.88;;
34673;SDS011;20879;55.668;37.858;2023-09-19T12:32:56;22.27;;;11.70;;
34673;SDS011;20879;55.668;37.858;2023-09-19T12:35:31;20.30;;;11.82;;
34673;SDS011;20879;55.668;37.858;2023-09-19T12:40:37;19.38;;;11.02;;
34673;SDS011;20879;55.668;37.858;2023-09-19T12:49:20;19.60;;;11.27;;
34673;SDS011;20879;55.668;37.858;2023-09-19T12:51:51;20.83;;;12.30;;
34673;SDS011;20879;55.668;37.858;2023-09-19T12:54:37;21.38;;;12.88;;
34673;SDS011;20879;55.668;37.858;2023-09-19T12:57:23;22.65;;;12.85;;
34673;SDS011;20879;55.668;37.858;2023-09-19T12:59:59;21.10;;;13.10;;
34673;SDS011;20879;55.668;37.858;2023-09-19T13:05:58;18.88;;;12.35;;
34673;SDS011;20879;55.668;37.858;2023-09-19T13:11:22;26.77;;;12.38;;
34673;SDS011;20879;55.668;37.858;2023-09-19T13:14:13;19.20;;;12.93;;
34673;SDS011;20879;55.668;37.858;2023-09-19T13:16:56;20.58;;;12.43;;
34673;SDS011;20879;55.668;37.858;2023-09-19T13:19:38;22.40;;;12.30;;
34673;SDS011;20879;55.668;37.858;2023-09-19T13:22:41;19.63;;;12.15;;
34673;SDS011;20879;55.668;37.858;2023-09-19T13:25:17;18.85;;;12.13;;
34673;SDS011;20879;55.668;37.858;2023-09-19T13:28:01;17.20;;;11.48;;
34673;SDS011;20879;55.668;37.858;2023-09-19T13:30:45;21.45;;;11.27;;
34673;SDS011;20879;55.668;37.858;2023-09-19T13:33:25;21.75;;;11.77;;
34673;SDS011;20879;55.668;37.858;2023-09-19T13:36:02;16.88;;;11.35;;
34673;SDS011;20879;55.668;37.858;2023-09-19T13:38:38;21.05;;;11.27;;
34673;SDS011;20879;55.668;37.858;2023-09-19T13:41:19;19.02;;;10.65;;
34673;SDS011;20879;55.668;37.858;2023-09-19T13:44:04;20.17;;;10.60;;
34673;SDS011;20879;55.668;37.858;2023-09-19T13:46:44;16.70;;;9.93;;
34673;SDS011;20879;55.668;37.858;2023-09-19T13:49:20;14.18;;;10.05;;
34673;SDS011;20879;55.668;37.858;2023-09-19T13:52:01;15.82;;;10.30;;
34673;SDS011;20879;55.668;37.858;2023-09-19T13:54:51;18.73;;;10.60;;
34673;SDS011;20879;55.668;37.858;2023-09-19T13:57:23;17.13;;;10.07;;
34673;SDS011;20879;55.668;37.858;2023-09-19T13:59:53;16.17;;;10.38;;
34673;SDS011;20879;55.668;37.858;2023-09-19T14:02:24;18.02;;;10.70;;
34673;SDS011;20879;55.668;37.858;2023-09-19T14:04:56;19.80;;;11.23;;
34673;SDS011;20879;55.668;37.858;2023-09-19T14:07:39;17.90;;;10.98;;
34673;SDS011;20879;55.668;37.858;2023-09-19T14:10:16;18.42;;;10.88;;
34673;SDS011;20879;55.668;37.858;2023-09-19T14:12:50;19.83;;;11.05;;
34673;SDS011;20879;55.668;37.858;2023-09-19T14:15:20;18.43;;;10.90;;
34673;SDS011;20879;55.668;37.858;2023-09-19T14:17:57;16.10;;;10.88;;
34673;SDS011;20879;55.668;37.858;2023-09-19T14:20:37;15.77;;;10.75;;
34673;SDS011;20879;55.668;37.858;2023-09-19T14:23:10;17.30;;;9.73;;
34673;SDS011;20879;55.668;37.858;2023-09-19T14:25:47;15.60;;;10.30;;
34673;SDS011;20879;55.668;37.858;2023-09-19T14:28:20;19.85;;;10.65;;
34673;SDS011;20879;55.668;37.858;2023-09-19T14:31:04;15.05;;;10.85;;
34673;SDS011;20879;55.668;37.858;2023-09-19T14:33:42;18.58;;;11.30;;
34673;SDS011;20879;55.668;37.858;2023-09-19T14:36:14;17.00;;;10.77;;
34673;SDS011;20879;55.668;37.858;2023-09-19T14:38:52;17.73;;;10.77;;
34673;SDS011;20879;55.668;37.858;2023-09-19T14:41:32;15.23;;;11.32;;
34673;SDS011;20879;55.668;37.858;2023-09-19T14:44:03;18.63;;;11.63;;
34673;SDS011;20879;55.668;37.858;2023-09-19T14:46:35;20.23;;;11.85;;
34673;SDS011;20879;55.668;37.858;2023-09-19T14:49:11;21.25;;;11.80;;
34673;SDS011;20879;55.668;37.858;2023-09-19T14:51:47;19.27;;;12.05;;
34673;SDS011;20879;55.668;37.858;2023-09-19T14:56:50;18.13;;;11.60;;
34673;SDS011;20879;55.668;37.858;2023-09-19T14:59:36;20.88;;;12.35;;
34673;SDS011;20879;55.668;37.858;2023-09-19T15:02:06;19.13;;;11.45;;
34673;SDS011;20879;55.668;37.858;2023-09-19T15:04:36;14.43;;;11.30;;
34673;SDS011;20879;55.668;37.858;2023-09-19T15:07:07;17.73;;;12.02;;
34673;SDS011;20879;55.668;37.858;2023-09-19T15:09:37;18.88;;;11.38;;
34673;SDS011;20879;55.668;37.858;2023-09-19T15:12:14;18.67;;;11.85;;
34673;SDS011;20879;55.668;37.858;2023-09-19T15:14:44;17.33;;;11.98;;
34673;SDS011;20879;55.668;37.858;2023-09-19T15:17:13;17.92;;;12.32;;
34673;SDS011;20879;55.668;37.858;2023-09-19T15:19:43;22.15;;;11.77;;
34673;SDS011;20879;55.668;37.858;2023-09-19T15:22:13;20.63;;;12.43;;
34673;SDS011;20879;55.668;37.858;2023-09-19T15:24:42;19.80;;;12.15;;
34673;SDS011;20879;55.668;37.858;2023-09-19T15:27:18;29.15;;;15.27;;
34673;SDS011;20879;55.668;37.858;2023-09-19T15:29:53;20.08;;;13.07;;
34673;SDS011;20879;55.668;37.858;2023-09-19T15:32:25;20.13;;;12.90;;
34673;SDS011;20879;55.668;37.858;2023-09-19T15:34:54;21.48;;;13.20;;
34673;SDS011;20879;55.668;37.858;2023-09-19T15:37:31;19.17;;;12.70;;
34673;SDS011;20879;55.668;37.858;2023-09-19T15:40:07;19.88;;;12.65;;
34673;SDS011;20879;55.668;37.858;2023-09-19T15:42:42;21.48;;;13.38;;
34673;SDS011;20879;55.668;37.858;2023-09-19T15:45:14;18.40;;;13.50;;
34673;SDS011;20879;55.668;37.858;2023-09-19T15:47:50;20.05;;;13.63;;
34673;SDS011;20879;55.668;37.858;2023-09-19T15:50:27;21.58;;;13.27;;
34673;SDS011;20879;55.668;37.858;2023-09-19T15:53:03;22.35;;;14.00;;
34673;SDS011;20879;55.668;37.858;2023-09-19T15:55:34;21.50;;;13.73;;
34673;SDS011;20879;55.668;37.858;2023-09-19T15:58:12;26.55;;;13.93;;
34673;SDS011;20879;55.668;37.858;2023-09-19T16:00:45;21.50;;;14.85;;
34673;SDS011;20879;55.668;37.858;2023-09-19T16:03:17;22.35;;;14.52;;
34673;SDS011;20879;55.668;37.858;2023-09-19T16:05:54;24.40;;;14.50;;
34673;SDS011;20879;55.668;37.858;2023-09-19T16:08:31;22.30;;;14.05;;
34673;SDS011;20879;55.668;37.858;2023-09-19T16:13:46;23.50;;;14.95;;